Terminal Aerodrome Forecast
Issued by NWS

Home | Current Version | Previous Version | Text Only | Print | Product List | Glossary On
Versions: 1 2 3 4 5 6 7 8 9 10 11 12 13 14 15 16 17 18 19 20 21 22 23 24 25 26 27 28
000
FTPA31 PHFO 041600 AAA
TAFLNY
TAF AMD
PHNY 041616Z 0416/0512 04017G25KT P6SM SCT005 BKN015 OVC200
      TEMPO 0416/0419 BKN005
     FM042200 03017G25KT P6SM SCT015 BKN035 OVC120
      AMD NOT SKED=

USA.gov is the U.S. government's official web portal to all federal, state and local government web resources and services.